Time;durP1;ratioP1;P1;durP2;ratioP2;P2;SDS_P1;SDS_P2;PMS_P1;PMS_P2;Temp;Humidity;BMP_temperature;BMP_pressure;BME280_temperature;BME280_humidity;BME280_pressure;Samples;Min_cycle;Max_cycle;Signal;HPM_P1;HPM_P2
2020/12/03 00:00:51;;;;;;;0.50;0.50;;;-0.70;99.90;;;;;;5070129;28;20281;-83
2020/12/03 00:03:20;;;;;;;0.50;0.50;;;-0.70;99.90;;;;;;5071146;28;20212;-84
2020/12/03 00:05:53;;;;;;;0.60;0.60;;;-0.70;99.90;;;;;;5070390;28;20644;-83
2020/12/03 00:08:20;;;;;;;0.50;0.50;;;-0.80;99.90;;;;;;5070597;28;20211;-84
2020/12/03 00:10:46;;;;;;;0.52;0.52;;;-0.80;99.90;;;;;;5069677;28;20228;-84
2020/12/03 00:13:17;;;;;;;0.50;0.50;;;-0.90;99.90;;;;;;5070153;28;20609;-84
2020/12/03 00:15:43;;;;;;;0.52;0.52;;;-0.90;99.90;;;;;;5070335;28;20285;-84
2020/12/03 00:18:10;;;;;;;0.60;0.60;;;-0.90;99.90;;;;;;5070069;28;20207;-84
2020/12/03 00:20:37;;;;;;;0.50;0.50;;;-0.90;99.90;;;;;;5070083;28;20204;-84
2020/12/03 00:23:05;;;;;;;0.50;0.50;;;-0.90;99.90;;;;;;5069847;28;20202;-84
2020/12/03 00:25:31;;;;;;;0.50;0.50;;;-0.90;99.90;;;;;;5070087;28;20203;-83
2020/12/03 00:27:57;;;;;;;0.50;0.50;;;-0.90;99.90;;;;;;5070367;28;20204;-84
2020/12/03 00:30:25;;;;;;;0.50;0.50;;;-0.90;99.90;;;;;;5070474;28;20735;-83
2020/12/03 00:32:52;;;;;;;0.50;0.50;;;-0.80;99.90;;;;;;5070373;28;20712;-84
2020/12/03 00:35:20;;;;;;;0.50;0.50;;;-0.90;99.90;;;;;;5070672;28;20195;-83
2020/12/03 00:37:47;;;;;;;0.50;0.50;;;-0.80;99.90;;;;;;5070308;28;20199;-83
2020/12/03 00:40:14;;;;;;;0.50;0.50;;;-0.80;99.90;;;;;;5070590;28;20290;-83
2020/12/03 00:42:41;;;;;;;0.50;0.50;;;-0.80;99.90;;;;;;5070314;28;20543;-83
2020/12/03 00:45:08;;;;;;;0.50;0.50;;;-0.80;99.90;;;;;;5070314;28;20360;-83
2020/12/03 00:47:35;;;;;;;0.50;0.50;;;-0.80;99.90;;;;;;5070668;28;20554;-83
2020/12/03 00:50:02;;;;;;;0.50;0.50;;;-0.80;99.90;;;;;;5070131;28;20412;-83
2020/12/03 00:52:28;;;;;;;0.50;0.50;;;-0.80;99.90;;;;;;5070400;28;20191;-84
2020/12/03 00:54:54;;;;;;;0.55;0.55;;;-0.70;99.90;;;;;;5070270;28;20204;-83
2020/12/03 00:57:22;;;;;;;0.50;0.50;;;-0.70;99.90;;;;;;5070408;28;20269;-84
2020/12/03 00:59:48;;;;;;;0.57;0.57;;;-0.80;99.90;;;;;;5069797;28;20266;-83
2020/12/03 01:02:15;;;;;;;0.60;0.60;;;-0.70;99.90;;;;;;5072627;28;20551;-83
2020/12/03 01:04:42;;;;;;;0.50;0.50;;;-0.70;99.90;;;;;;5074078;28;20619;-83
2020/12/03 01:07:08;;;;;;;0.55;0.55;;;-0.70;99.90;;;;;;5074133;28;20203;-84
2020/12/03 01:09:35;;;;;;;0.52;0.52;;;-0.70;99.90;;;;;;5074182;28;20235;-83
2020/12/03 01:12:02;;;;;;;0.50;0.50;;;-0.80;99.90;;;;;;5074056;28;20855;-84
2020/12/03 01:14:28;;;;;;;0.50;0.50;;;-0.80;99.90;;;;;;5073949;28;20200;-84
2020/12/03 01:16:57;;;;;;;0.55;0.55;;;-0.90;99.90;;;;;;5073833;28;20207;-83
2020/12/03 01:19:23;;;;;;;0.60;0.60;;;-0.80;99.90;;;;;;5073899;28;20239;-84
2020/12/03 01:21:49;;;;;;;0.50;0.50;;;-0.80;99.90;;;;;;5073584;28;20203;-84
2020/12/03 01:24:15;;;;;;;0.50;0.50;;;-0.70;99.90;;;;;;5074186;28;20689;-84
2020/12/03 01:26:41;;;;;;;0.50;0.50;;;-0.70;99.90;;;;;;5073474;28;20264;-84
2020/12/03 01:29:10;;;;;;;0.60;0.60;;;-0.70;99.90;;;;;;5073812;28;20658;-83
2020/12/03 01:31:37;;;;;;;0.50;0.50;;;-0.70;99.90;;;;;;5073497;28;20337;-84
2020/12/03 01:34:03;;;;;;;0.50;0.50;;;-0.70;99.90;;;;;;5073625;28;20204;-83
2020/12/03 01:36:29;;;;;;;0.50;0.50;;;-0.70;99.90;;;;;;5073635;28;20203;-83
2020/12/03 01:38:56;;;;;;;0.50;0.50;;;-0.80;99.90;;;;;;5073296;28;20787;-83
2020/12/03 01:41:22;;;;;;;0.50;0.50;;;-0.80;99.90;;;;;;5073601;28;20284;-83
2020/12/03 01:43:48;;;;;;;0.50;0.50;;;-0.80;99.90;;;;;;5073345;28;20199;-84
2020/12/03 01:46:17;;;;;;;0.60;0.60;;;-0.70;99.90;;;;;;5072762;28;20207;-84
2020/12/03 01:48:48;;;;;;;0.50;0.50;;;-0.70;99.90;;;;;;5072908;28;20243;-84
2020/12/03 01:51:18;;;;;;;0.50;0.50;;;-0.70;99.90;;;;;;5073146;28;20261;-84
2020/12/03 01:53:45;;;;;;;0.50;0.50;;;-0.70;99.90;;;;;;5072794;28;20204;-84
2020/12/03 01:56:44;;;;;;;0.50;0.50;;;-0.70;99.90;;;;;;5072939;28;20203;-84
2020/12/03 01:59:11;;;;;;;0.50;0.50;;;-0.70;99.90;;;;;;5072840;28;20227;-84
2020/12/03 02:01:38;;;;;;;0.50;0.50;;;-0.70;99.90;;;;;;5072627;28;20200;-84
2020/12/03 02:04:05;;;;;;;0.50;0.50;;;-0.70;99.90;;;;;;5072617;28;20200;-84
2020/12/03 02:06:35;;;;;;;0.60;0.60;;;-0.70;99.90;;;;;;5072877;28;20253;-84
2020/12/03 02:09:01;;;;;;;0.50;0.50;;;-0.70;99.90;;;;;;5072428;28;20199;-84
2020/12/03 02:11:27;;;;;;;0.50;0.50;;;-0.70;99.90;;;;;;5072235;28;20769;-84
2020/12/03 02:13:59;;;;;;;0.50;0.50;;;-0.60;99.90;;;;;;5071351;28;20671;-84
2020/12/03 02:16:28;;;;;;;0.50;0.50;;;-0.70;99.90;;;;;;5072613;28;20249;-84
2020/12/03 02:18:55;;;;;;;0.50;0.50;;;-0.60;99.90;;;;;;5072200;28;20807;-84
2020/12/03 02:21:25;;;;;;;0.50;0.50;;;-0.60;99.90;;;;;;5072800;28;20249;-84
2020/12/03 02:23:51;;;;;;;0.55;0.55;;;-0.60;99.90;;;;;;5072331;28;20666;-84
2020/12/03 02:26:18;;;;;;;0.60;0.60;;;-0.60;99.90;;;;;;5072605;28;20206;-84
2020/12/03 02:28:44;;;;;;;0.50;0.50;;;-0.60;99.90;;;;;;5072325;28;20204;-84
2020/12/03 02:31:11;;;;;;;0.50;0.50;;;-0.60;99.90;;;;;;5072058;28;20204;-84
2020/12/03 02:33:37;;;;;;;0.50;0.50;;;-0.60;99.90;;;;;;5072344;28;20199;-84
2020/12/03 02:36:04;;;;;;;0.50;0.50;;;-0.50;99.90;;;;;;5072117;28;20735;-84
2020/12/03 02:38:30;;;;;;;0.50;0.50;;;-0.50;99.90;;;;;;5071724;28;20227;-84
2020/12/03 02:40:57;;;;;;;0.50;0.50;;;-0.50;99.90;;;;;;5071966;28;20200;-84
2020/12/03 02:43:24;;;;;;;0.55;0.55;;;-0.60;99.90;;;;;;5072103;28;20614;-84
2020/12/03 02:45:53;;;;;;;0.60;0.60;;;-0.60;99.90;;;;;;5071773;28;20704;-84
2020/12/03 02:48:19;;;;;;;0.50;0.50;;;-0.60;99.90;;;;;;5071882;28;20732;-84
2020/12/03 02:50:45;;;;;;;0.50;0.50;;;-0.50;99.90;;;;;;5071592;28;20200;-84
2020/12/03 02:53:11;;;;;;;0.57;0.57;;;-0.50;99.90;;;;;;5071751;28;20732;-84
2020/12/03 02:55:38;;;;;;;0.50;0.50;;;-0.50;99.90;;;;;;5070978;28;20269;-84
2020/12/03 02:58:04;;;;;;;0.50;0.50;;;-0.50;99.90;;;;;;5071203;28;20211;-84
2020/12/03 03:00:31;;;;;;;0.50;0.50;;;-0.50;99.90;;;;;;5071637;28;20583;-84
2020/12/03 03:02:57;;;;;;;0.50;0.50;;;-0.50;99.90;;;;;;5071266;28;20226;-85
2020/12/03 03:05:24;;;;;;;0.55;0.55;;;-0.50;99.90;;;;;;5071576;28;20208;-84
2020/12/03 03:07:50;;;;;;;0.50;0.50;;;-0.50;99.90;;;;;;5071684;28;20203;-84
2020/12/03 03:10:21;;;;;;;0.50;0.50;;;-0.50;99.90;;;;;;5071368;28;20654;-84
2020/12/03 03:12:48;;;;;;;0.50;0.50;;;-0.50;99.90;;;;;;5071115;28;20203;-84
2020/12/03 03:15:18;;;;;;;0.52;0.52;;;-0.50;99.90;;;;;;5070970;28;20257;-84
2020/12/03 03:17:45;;;;;;;0.50;0.50;;;-0.50;99.90;;;;;;5070732;28;20203;-84
2020/12/03 03:20:11;;;;;;;0.50;0.50;;;-0.60;99.90;;;;;;5070954;28;20227;-85
2020/12/03 03:22:39;;;;;;;0.50;0.50;;;-0.50;99.90;;;;;;5070849;28;20195;-84
2020/12/03 03:25:06;;;;;;;0.50;0.50;;;-0.50;99.90;;;;;;5070463;28;20702;-84
2020/12/03 03:27:32;;;;;;;0.57;0.57;;;-0.50;99.90;;;;;;5071334;28;20647;-84
2020/12/03 03:29:59;;;;;;;0.50;0.50;;;-0.50;99.90;;;;;;5071070;28;20196;-84
2020/12/03 03:32:26;;;;;;;0.50;0.50;;;-0.60;99.90;;;;;;5070951;28;20637;-84
2020/12/03 03:34:52;;;;;;;0.50;0.50;;;-0.60;99.90;;;;;;5070946;28;20249;-84
2020/12/03 03:37:18;;;;;;;0.50;0.50;;;-0.60;99.90;;;;;;5071024;28;20208;-84
2020/12/03 03:39:44;;;;;;;0.50;0.50;;;-0.60;99.90;;;;;;5070491;28;20273;-84
2020/12/03 03:42:10;;;;;;;0.50;0.50;;;-0.60;99.90;;;;;;5070470;28;20260;-84
2020/12/03 03:44:36;;;;;;;0.50;0.50;;;-0.70;99.90;;;;;;5070759;28;20199;-84
2020/12/03 03:47:05;;;;;;;0.50;0.50;;;-0.70;99.90;;;;;;5070448;28;20253;-84
2020/12/03 03:49:31;;;;;;;0.50;0.50;;;-0.60;99.90;;;;;;5070388;28;20200;-83
2020/12/03 03:51:57;;;;;;;0.57;0.57;;;-0.60;99.90;;;;;;5070815;28;20208;-84
2020/12/03 03:54:23;;;;;;;0.50;0.50;;;-0.70;99.90;;;;;;5070395;28;20199;-83
2020/12/03 03:56:49;;;;;;;0.50;0.50;;;-0.60;99.90;;;;;;5070227;28;20208;-83
2020/12/03 03:59:15;;;;;;;0.50;0.50;;;-0.70;99.90;;;;;;5070186;28;20231;-84
2020/12/03 04:01:41;;;;;;;0.50;0.50;;;-0.70;99.90;;;;;;5070333;28;20203;-84
2020/12/03 04:04:08;;;;;;;0.50;0.50;;;-0.70;99.90;;;;;;5070580;28;20257;-84
2020/12/03 04:06:35;;;;;;;0.60;0.60;;;-0.70;99.90;;;;;;5070656;28;20199;-84
2020/12/03 04:09:01;;;;;;;0.50;0.50;;;-0.70;99.90;;;;;;5070405;28;20253;-84
2020/12/03 04:11:27;;;;;;;0.50;0.50;;;-0.70;99.90;;;;;;5070427;28;20622;-83
2020/12/03 04:13:53;;;;;;;0.50;0.50;;;-0.70;99.90;;;;;;5070424;28;20270;-84
2020/12/03 04:16:19;;;;;;;0.50;0.50;;;-0.70;99.90;;;;;;5070289;28;20783;-84
2020/12/03 04:18:45;;;;;;;0.50;0.50;;;-0.70;99.90;;;;;;5069731;28;20227;-84
2020/12/03 04:21:15;;;;;;;0.50;0.50;;;-0.70;99.90;;;;;;5070162;28;20570;-84
2020/12/03 04:23:41;;;;;;;0.60;0.60;;;-0.60;99.90;;;;;;5069709;28;20290;-84
2020/12/03 04:26:07;;;;;;;0.50;0.50;;;-0.60;99.90;;;;;;5069932;28;20199;-84
2020/12/03 04:28:33;;;;;;;0.50;0.50;;;-0.60;99.90;;;;;;5070144;28;20261;-84
2020/12/03 04:30:59;;;;;;;0.50;0.50;;;-0.70;99.90;;;;;;5070199;28;20231;-84
2020/12/03 04:33:26;;;;;;;0.50;0.50;;;-0.60;99.90;;;;;;5069805;28;20204;-84
2020/12/03 04:35:52;;;;;;;0.50;0.50;;;-0.70;99.90;;;;;;5069456;28;20735;-84
2020/12/03 04:38:20;;;;;;;0.50;0.50;;;-0.70;99.90;;;;;;5070040;28;20260;-84
2020/12/03 04:40:47;;;;;;;0.50;0.50;;;-0.70;99.90;;;;;;5069794;28;20234;-84
2020/12/03 04:43:26;;;;;;;0.60;0.60;;;-0.60;99.90;;;;;;5069881;28;20199;-84
2020/12/03 04:45:58;;;;;;;0.50;0.50;;;-0.60;99.90;;;;;;5069960;28;20265;-84
2020/12/03 04:48:52;;;;;;;0.50;0.50;;;-0.60;99.90;;;;;;5069850;28;20265;-84
2020/12/03 04:51:34;;;;;;;0.50;0.50;;;-0.70;99.90;;;;;;5070069;28;20210;-84
2020/12/03 04:54:17;;;;;;;0.50;0.50;;;-0.60;99.90;;;;;;5069620;28;20196;-84
2020/12/03 04:56:51;;;;;;;0.50;0.50;;;-0.60;99.90;;;;;;5069643;28;20208;-84
2020/12/03 04:59:28;;;;;;;0.50;0.50;;;-0.60;99.90;;;;;;5069934;28;20388;-84
2020/12/03 05:02:10;;;;;;;0.60;0.60;;;-0.60;99.90;;;;;;5069685;28;20657;-84
2020/12/03 05:04:44;;;;;;;0.50;0.50;;;-0.50;99.90;;;;;;5069715;28;20207;-84
2020/12/03 05:07:12;;;;;;;0.50;0.50;;;-0.60;99.90;;;;;;5069988;28;20212;-84
2020/12/03 05:09:45;;;;;;;0.50;0.50;;;-0.50;99.90;;;;;;5069655;28;20199;-84
2020/12/03 05:12:16;;;;;;;0.60;0.60;;;-0.50;99.90;;;;;;5069638;28;20228;-84
2020/12/03 05:14:46;;;;;;;0.50;0.50;;;-0.50;99.90;;;;;;5069324;28;20256;-84
2020/12/03 05:17:30;;;;;;;0.50;0.50;;;-0.50;99.90;;;;;;5069665;28;20222;-84
2020/12/03 05:20:23;;;;;;;0.50;0.50;;;-0.50;99.90;;;;;;5069357;28;20224;-84
2020/12/03 05:22:56;;;;;;;0.55;0.55;;;-0.50;99.90;;;;;;5069470;28;20204;-84
2020/12/03 05:25:24;;;;;;;0.50;0.50;;;-0.50;99.90;;;;;;5069344;28;20208;-84
2020/12/03 05:27:53;;;;;;;0.50;0.50;;;-0.50;99.90;;;;;;5069499;28;20245;-84
2020/12/03 05:30:19;;;;;;;0.50;0.50;;;-0.50;99.90;;;;;;5069538;28;20212;-84
2020/12/03 05:32:46;;;;;;;0.50;0.50;;;-0.50;99.90;;;;;;5069073;28;20365;-84
2020/12/03 05:35:12;;;;;;;0.60;0.60;;;-0.50;99.90;;;;;;5069360;28;20204;-84
2020/12/03 05:37:40;;;;;;;0.50;0.50;;;-0.50;99.90;;;;;;5069440;28;20207;-84
2020/12/03 05:40:15;;;;;;;0.50;0.50;;;-0.50;99.90;;;;;;5068994;28;20778;-84
2020/12/03 05:42:42;;;;;;;0.60;0.60;;;-0.50;99.90;;;;;;5069373;28;20195;-84
2020/12/03 05:45:11;;;;;;;0.50;0.50;;;-0.50;99.90;;;;;;5068872;28;20463;-84
2020/12/03 05:47:41;;;;;;;0.57;0.57;;;-0.40;99.90;;;;;;5070505;28;20200;-84
2020/12/03 05:50:10;;;;;;;0.50;0.50;;;-0.40;99.90;;;;;;5072568;28;20642;-84
2020/12/03 05:52:40;;;;;;;0.55;0.55;;;-0.40;99.90;;;;;;5072718;28;20242;-84
2020/12/03 05:55:08;;;;;;;0.50;0.50;;;-0.40;99.90;;;;;;5072228;28;20572;-84
2020/12/03 05:57:36;;;;;;;0.57;0.57;;;-0.40;99.90;;;;;;5072707;28;20290;-84
2020/12/03 06:00:16;;;;;;;0.60;0.60;;;-0.50;99.90;;;;;;5072627;28;20253;-84
2020/12/03 06:02:52;;;;;;;0.50;0.50;;;-0.40;99.90;;;;;;5072537;28;20203;-84
2020/12/03 06:05:25;;;;;;;0.52;0.52;;;-0.40;99.90;;;;;;5072566;28;20540;-84
2020/12/03 06:08:04;;;;;;;0.57;0.57;;;-0.40;99.90;;;;;;5072345;28;20199;-84
2020/12/03 06:10:40;;;;;;;0.50;0.50;;;-0.40;99.90;;;;;;5071994;28;20922;-84
2020/12/03 06:13:34;;;;;;;0.50;0.50;;;-0.40;99.90;;;;;;5072075;28;20221;-84
2020/12/03 06:16:04;;;;;;;0.50;0.50;;;-0.40;99.90;;;;;;5072136;28;20299;-84
2020/12/03 06:18:50;;;;;;;0.50;0.50;;;-0.40;99.90;;;;;;5072454;28;20286;-84
2020/12/03 06:21:49;;;;;;;0.50;0.50;;;-0.40;99.90;;;;;;5072350;28;20351;-84
2020/12/03 06:24:51;;;;;;;0.50;0.50;;;-0.40;99.90;;;;;;5047323;28;20291;-84
2020/12/03 06:27:37;;;;;;;0.55;0.55;;;-0.40;99.90;;;;;;5072240;28;20195;-84
2020/12/03 06:30:13;;;;;;;0.60;0.60;;;-0.40;99.90;;;;;;5072366;28;20585;-84
2020/12/03 06:33:03;;;;;;;0.55;0.55;;;-0.40;99.90;;;;;;5072300;28;20191;-84
2020/12/03 06:35:36;;;;;;;0.50;0.50;;;-0.40;99.90;;;;;;5048829;28;20576;-84
2020/12/03 06:38:16;;;;;;;0.55;0.55;;;-0.40;99.90;;;;;;5072227;28;20203;-84
2020/12/03 06:41:01;;;;;;;0.50;0.50;;;-0.40;99.90;;;;;;5072132;28;20227;-84
2020/12/03 06:43:35;;;;;;;0.57;0.57;;;-0.30;99.90;;;;;;5072296;28;20713;-84
2020/12/03 06:46:39;;;;;;;0.50;0.50;;;-0.30;99.90;;;;;;5071923;28;20256;-83
2020/12/03 06:49:32;;;;;;;0.50;0.50;;;-0.30;99.90;;;;;;5071819;28;20253;-84
2020/12/03 06:52:40;;;;;;;0.50;0.50;;;-0.30;99.90;;;;;;5071824;28;20199;-84
2020/12/03 06:55:23;;;;;;;0.52;0.52;;;-0.30;99.90;;;;;;5062709;28;20249;-83
2020/12/03 06:58:16;;;;;;;0.50;0.50;;;-0.30;99.90;;;;;;5071830;28;20200;-84
2020/12/03 07:01:19;;;;;;;0.55;0.55;;;-0.30;99.90;;;;;;5071276;28;20231;-83
2020/12/03 07:04:33;;;;;;;0.52;0.52;;;-0.30;99.90;;;;;;5071623;28;20605;-84
2020/12/03 07:07:32;;;;;;;0.50;0.50;;;-0.40;99.90;;;;;;5071395;28;20545;-84
2020/12/03 07:10:40;;;;;;;0.50;0.50;;;-0.30;99.90;;;;;;5070971;28;20711;-84
2020/12/03 07:13:43;;;;;;;0.50;0.50;;;-0.30;99.90;;;;;;5071045;28;20253;-84
2020/12/03 07:16:58;;;;;;;0.55;0.55;;;-0.30;99.90;;;;;;5046090;28;20236;-84
2020/12/03 07:19:53;;;;;;;0.50;0.50;;;-0.30;99.90;;;;;;5052824;28;20232;-85
2020/12/03 07:22:24;;;;;;;0.60;0.60;;;-0.30;99.90;;;;;;5064379;28;20207;-85
2020/12/03 07:24:51;;;;;;;0.60;0.60;;;-0.30;99.90;;;;;;5070185;28;20646;-85
2020/12/03 07:27:52;;;;;;;0.50;0.50;;;-0.40;99.90;;;;;;5070591;28;20212;-85
2020/12/03 07:30:51;;;;;;;0.50;0.50;;;-0.40;99.90;;;;;;5071409;28;20199;-85
2020/12/03 07:33:33;;;;;;;0.50;0.50;;;-0.40;99.90;;;;;;5069172;28;20208;-84
2020/12/03 07:36:17;;;;;;;0.50;0.50;;;-0.40;99.90;;;;;;5071373;28;20207;-84
2020/12/03 07:38:51;;;;;;;0.50;0.50;;;-0.40;99.90;;;;;;5070932;28;20229;-85
2020/12/03 07:41:20;;;;;;;0.60;0.60;;;-0.40;99.90;;;;;;5071158;28;20203;-85
2020/12/03 07:43:46;;;;;;;0.60;0.60;;;-0.30;99.90;;;;;;5071207;28;20408;-85
2020/12/03 07:46:35;;;;;;;0.50;0.50;;;-0.30;99.90;;;;;;5071936;28;20212;-84
2020/12/03 07:49:01;;;;;;;0.50;0.50;;;-0.30;99.90;;;;;;5071768;28;20245;-85
2020/12/03 07:51:28;;;;;;;0.50;0.50;;;-0.30;99.90;;;;;;5083714;28;20203;-85
2020/12/03 07:54:23;;;;;;;0.50;0.50;;;-0.30;99.90;;;;;;5054934;28;20196;-85
2020/12/03 07:56:49;;;;;;;0.50;0.50;;;-0.30;99.90;;;;;;5062034;28;20195;-85
2020/12/03 07:59:39;;;;;;;0.50;0.50;;;-0.30;99.90;;;;;;5071637;28;20223;-85
2020/12/03 08:02:57;;;;;;;0.50;0.50;;;-0.30;99.90;;;;;;5068889;28;20202;-85
2020/12/03 08:05:51;;;;;;;0.60;0.60;;;-0.20;99.90;;;;;;5008191;28;20934;-85
2020/12/03 08:08:47;;;;;;;0.57;0.57;;;-0.30;99.90;;;;;;5008722;28;20198;-84
2020/12/03 08:11:37;;;;;;;0.50;0.50;;;-0.30;99.90;;;;;;5013772;28;20223;-85
2020/12/03 08:14:19;;;;;;;0.50;0.50;;;-0.20;99.90;;;;;;5070734;28;20203;-84
2020/12/03 08:16:45;;;;;;;0.50;0.50;;;-0.20;99.90;;;;;;5070715;28;20280;-85
2020/12/03 08:19:20;;;;;;;0.60;0.60;;;-0.20;99.90;;;;;;5070948;28;20211;-85
2020/12/03 08:21:48;;;;;;;0.50;0.50;;;-0.20;99.90;;;;;;5070926;28;20245;-84
2020/12/03 08:24:23;;;;;;;0.50;0.50;;;-0.20;99.90;;;;;;5070680;28;20612;-85
2020/12/03 08:26:49;;;;;;;0.60;0.60;;;-0.20;99.90;;;;;;5071054;28;20605;-85
2020/12/03 08:29:44;;;;;;;0.50;0.50;;;-0.20;99.90;;;;;;5071550;28;20281;-85
2020/12/03 08:32:10;;;;;;;0.50;0.50;;;-0.20;99.90;;;;;;5071384;28;20207;-85
2020/12/03 08:34:38;;;;;;;0.50;0.50;;;-0.10;99.90;;;;;;5071316;28;20203;-85
2020/12/03 08:37:10;;;;;;;0.60;0.60;;;-0.10;99.90;;;;;;5070386;28;20446;-85
2020/12/03 08:39:37;;;;;;;0.50;0.50;;;0.00;99.90;;;;;;5070397;28;20231;-85
2020/12/03 08:42:06;;;;;;;0.50;0.50;;;-0.10;99.90;;;;;;5070129;28;20204;-85
2020/12/03 08:44:32;;;;;;;0.50;0.50;;;0.00;99.90;;;;;;5070441;28;20200;-85
2020/12/03 08:47:01;;;;;;;0.57;0.57;;;0.00;99.90;;;;;;5069752;28;20671;-85
2020/12/03 08:49:27;;;;;;;0.60;0.60;;;0.00;99.90;;;;;;5070517;28;20564;-84
2020/12/03 08:51:57;;;;;;;0.60;0.60;;;0.10;99.90;;;;;;5070155;28;20211;-84
2020/12/03 08:54:25;;;;;;;0.50;0.50;;;0.10;99.90;;;;;;5071113;28;20199;-85
2020/12/03 08:56:55;;;;;;;0.50;0.50;;;0.10;99.90;;;;;;5071292;28;20203;-84
2020/12/03 08:59:28;;;;;;;0.57;0.57;;;0.10;99.90;;;;;;5071250;28;20229;-85
2020/12/03 09:02:06;;;;;;;0.50;0.50;;;0.10;99.90;;;;;;5071172;28;20203;-85
2020/12/03 09:04:34;;;;;;;0.60;0.60;;;0.10;99.90;;;;;;5071390;28;20231;-84
2020/12/03 09:07:03;;;;;;;0.50;0.50;;;0.20;99.90;;;;;;5071353;28;20570;-85
2020/12/03 09:09:30;;;;;;;0.50;0.50;;;0.20;99.90;;;;;;5071329;28;20204;-84
2020/12/03 09:11:57;;;;;;;0.60;0.60;;;0.20;99.90;;;;;;5070994;28;20231;-85
2020/12/03 09:14:25;;;;;;;0.50;0.50;;;0.20;99.90;;;;;;5071298;28;20212;-85
2020/12/03 09:17:00;;;;;;;0.50;0.50;;;0.10;99.90;;;;;;5070953;28;20200;-84
2020/12/03 09:19:27;;;;;;;0.57;0.57;;;0.20;99.90;;;;;;5071127;28;20231;-84
2020/12/03 09:21:54;;;;;;;0.55;0.55;;;0.30;99.90;;;;;;5071008;28;20732;-85
2020/12/03 09:24:23;;;;;;;0.50;0.50;;;0.30;99.90;;;;;;5075169;28;20200;-85
2020/12/03 09:26:51;;;;;;;0.60;0.60;;;0.40;99.90;;;;;;5074634;28;20204;-85
2020/12/03 09:29:19;;;;;;;0.60;0.60;;;0.40;99.90;;;;;;5075170;28;20260;-85
2020/12/03 09:31:45;;;;;;;0.60;0.60;;;0.40;99.90;;;;;;5074348;28;20666;-85
2020/12/03 09:34:13;;;;;;;0.50;0.50;;;0.50;99.90;;;;;;5074395;28;20196;-85
2020/12/03 09:36:40;;;;;;;0.60;0.60;;;0.50;99.90;;;;;;5074556;28;20207;-85
2020/12/03 09:39:07;;;;;;;0.57;0.57;;;0.50;99.90;;;;;;5074022;28;20199;-85
2020/12/03 09:41:34;;;;;;;0.60;0.60;;;0.50;99.90;;;;;;5074519;28;20212;-86
2020/12/03 09:44:05;;;;;;;0.50;0.50;;;0.60;99.90;;;;;;5073931;28;20214;-86
2020/12/03 09:46:36;;;;;;;0.60;0.60;;;0.60;99.90;;;;;;5073397;28;20218;-85
2020/12/03 09:49:03;;;;;;;0.60;0.60;;;0.70;99.90;;;;;;5074449;28;20203;-85
2020/12/03 09:51:34;;;;;;;0.55;0.55;;;0.70;99.90;;;;;;5074320;28;20207;-85
2020/12/03 09:54:02;;;;;;;0.50;0.50;;;0.60;99.90;;;;;;5073088;28;20195;-85
2020/12/03 09:56:28;;;;;;;0.60;0.60;;;0.60;99.90;;;;;;5074602;28;20200;-85
2020/12/03 09:58:58;;;;;;;0.60;0.60;;;0.60;99.90;;;;;;5074580;28;20644;-85
2020/12/03 10:01:38;;;;;;;0.50;0.50;;;0.60;99.90;;;;;;5074409;28;20257;-85
2020/12/03 10:04:29;;;;;;;0.50;0.50;;;0.60;99.90;;;;;;5074374;28;20294;-85
2020/12/03 10:07:05;;;;;;;0.50;0.50;;;0.60;99.90;;;;;;5071517;28;20204;-84
2020/12/03 10:10:10;;;;;;;0.55;0.55;;;0.60;99.90;;;;;;5074133;28;20720;-85
2020/12/03 10:12:48;;;;;;;0.60;0.60;;;0.60;99.90;;;;;;5073364;28;20203;-84
2020/12/03 10:15:29;;;;;;;0.50;0.50;;;0.60;99.90;;;;;;5073212;28;20203;-85
2020/12/03 10:18:15;;;;;;;0.50;0.50;;;0.70;99.90;;;;;;5072568;28;20207;-85
2020/12/03 10:20:42;;;;;;;0.50;0.50;;;0.70;99.90;;;;;;5072921;28;20368;-85
2020/12/03 10:23:37;;;;;;;0.50;0.50;;;0.70;99.90;;;;;;5074131;28;20211;-85
2020/12/03 10:26:21;;;;;;;0.50;0.50;;;0.70;99.90;;;;;;5074505;28;20253;-85
2020/12/03 10:28:52;;;;;;;0.50;0.50;;;0.70;99.90;;;;;;5074764;28;20203;-85
2020/12/03 10:31:20;;;;;;;0.50;0.50;;;0.70;99.90;;;;;;5073439;28;20257;-85
2020/12/03 10:33:48;;;;;;;0.60;0.60;;;0.70;99.90;;;;;;5073069;28;20258;-86
2020/12/03 10:36:31;;;;;;;0.50;0.50;;;0.70;99.90;;;;;;5073085;28;20204;-85
2020/12/03 10:39:00;;;;;;;0.60;0.60;;;0.70;99.90;;;;;;5072340;28;20203;-85
2020/12/03 10:41:32;;;;;;;0.60;0.60;;;0.70;99.90;;;;;;5072390;28;20227;-86
2020/12/03 10:44:04;;;;;;;0.50;0.50;;;0.60;99.90;;;;;;5072441;28;20211;-86
2020/12/03 10:46:37;;;;;;;0.60;0.60;;;0.70;99.90;;;;;;5072476;28;20235;-86
2020/12/03 10:49:03;;;;;;;0.50;0.50;;;0.70;99.90;;;;;;5073114;28;20662;-86
2020/12/03 10:51:30;;;;;;;0.50;0.50;;;0.70;99.90;;;;;;5074117;28;20277;-86
2020/12/03 10:53:56;;;;;;;0.50;0.50;;;0.70;99.90;;;;;;5073970;28;20245;-86
2020/12/03 10:56:27;;;;;;;0.50;0.50;;;0.70;99.90;;;;;;5074530;28;20211;-86
2020/12/03 10:59:31;;;;;;;0.60;0.60;;;0.80;99.90;;;;;;5072912;28;20276;-86
2020/12/03 11:01:59;;;;;;;0.60;0.60;;;0.80;99.90;;;;;;5071692;28;20235;-87
2020/12/03 11:04:26;;;;;;;0.50;0.50;;;0.80;99.90;;;;;;5073453;28;20364;-87
2020/12/03 11:06:52;;;;;;;0.60;0.60;;;0.80;99.90;;;;;;5073024;28;20750;-86
2020/12/03 11:09:21;;;;;;;0.60;0.60;;;0.80;99.90;;;;;;5073277;28;20208;-86
2020/12/03 11:11:49;;;;;;;0.50;0.50;;;0.80;99.90;;;;;;5072691;28;20231;-87
2020/12/03 11:14:16;;;;;;;0.57;0.57;;;0.70;99.90;;;;;;5071062;28;20196;-86
2020/12/03 11:16:46;;;;;;;0.57;0.57;;;0.70;99.90;;;;;;5069217;28;20207;-86
2020/12/03 11:19:18;;;;;;;0.50;0.50;;;0.70;99.90;;;;;;5072206;28;20215;-86
2020/12/03 11:21:54;;;;;;;0.60;0.60;;;0.80;99.90;;;;;;5072592;28;20210;-85
2020/12/03 11:24:32;;;;;;;0.60;0.60;;;0.80;99.90;;;;;;5072835;28;20233;-86
2020/12/03 11:26:59;;;;;;;0.50;0.50;;;0.80;99.90;;;;;;5072240;28;20198;-86
2020/12/03 11:29:26;;;;;;;0.50;0.50;;;0.80;99.90;;;;;;5071816;28;20203;-87
2020/12/03 11:31:59;;;;;;;0.50;0.50;;;0.80;99.90;;;;;;5072591;28;20206;-87
2020/12/03 11:34:36;;;;;;;0.50;0.50;;;0.80;99.90;;;;;;5073091;28;20569;-86
2020/12/03 11:37:02;;;;;;;0.60;0.60;;;0.80;99.90;;;;;;5072298;28;20199;-86
2020/12/03 11:39:29;;;;;;;0.60;0.60;;;0.80;99.90;;;;;;5072362;28;20705;-86
2020/12/03 11:42:14;;;;;;;0.50;0.50;;;0.80;99.90;;;;;;5071224;28;20243;-87
2020/12/03 11:44:59;;;;;;;0.60;0.60;;;0.80;99.90;;;;;;5071893;28;20203;-86
2020/12/03 11:50:14;;;;;;;0.50;0.50;;;0.80;99.90;;;;;;5072289;28;20290;-86
2020/12/03 11:52:41;;;;;;;0.50;0.50;;;0.80;99.90;;;;;;5072277;28;20204;-86
2020/12/03 11:55:20;;;;;;;0.50;0.50;;;0.90;99.90;;;;;;5071819;28;20200;-86
2020/12/03 11:57:47;;;;;;;0.60;0.60;;;0.90;99.90;;;;;;5071089;28;20195;-86
2020/12/03 12:00:21;;;;;;;0.50;0.50;;;0.90;99.90;;;;;;5071351;28;20239;-85
2020/12/03 12:02:53;;;;;;;0.50;0.50;;;0.90;99.90;;;;;;5071918;28;20231;-85
2020/12/03 12:05:32;;;;;;;0.50;0.50;;;0.90;99.90;;;;;;5071831;28;20204;-85
2020/12/03 12:08:07;;;;;;;0.50;0.50;;;0.90;99.90;;;;;;5071856;28;20234;-86
2020/12/03 12:10:40;;;;;;;0.60;0.60;;;0.90;99.90;;;;;;5070273;28;20238;-85
2020/12/03 12:13:06;;;;;;;0.60;0.60;;;0.80;99.90;;;;;;5071315;28;20199;-86
2020/12/03 12:15:32;;;;;;;0.50;0.50;;;1.00;99.90;;;;;;5071479;28;20211;-86
2020/12/03 12:17:58;;;;;;;0.60;0.60;;;1.00;99.90;;;;;;5071702;28;20199;-85
2020/12/03 12:20:25;;;;;;;0.50;0.50;;;1.00;99.90;;;;;;5071929;28;20231;-85
2020/12/03 12:22:51;;;;;;;0.50;0.50;;;1.00;99.90;;;;;;5072008;28;20598;-85
2020/12/03 12:25:18;;;;;;;0.50;0.50;;;1.00;99.90;;;;;;5071927;28;20254;-85
2020/12/03 12:27:44;;;;;;;0.60;0.60;;;1.00;99.90;;;;;;5071227;28;20753;-86
2020/12/03 12:30:10;;;;;;;0.50;0.50;;;1.00;99.90;;;;;;5071858;28;20280;-86
2020/12/03 12:32:36;;;;;;;0.60;0.60;;;1.10;99.90;;;;;;5071619;28;20215;-86
2020/12/03 12:35:02;;;;;;;0.50;0.50;;;1.10;99.90;;;;;;5071485;28;20196;-86
2020/12/03 12:37:29;;;;;;;0.50;0.50;;;1.10;99.90;;;;;;5071766;28;20617;-86
2020/12/03 12:39:58;;;;;;;0.50;0.50;;;1.10;99.90;;;;;;5071494;28;20223;-86
2020/12/03 12:42:28;;;;;;;0.50;0.50;;;1.00;99.90;;;;;;5071498;28;20237;-85
2020/12/03 12:44:54;;;;;;;0.60;0.60;;;1.00;99.90;;;;;;5070835;28;20208;-86
2020/12/03 12:47:21;;;;;;;0.52;0.52;;;1.00;99.90;;;;;;5071350;28;20207;-86
2020/12/03 12:49:47;;;;;;;0.57;0.57;;;1.00;99.90;;;;;;5071599;28;20231;-86
2020/12/03 12:52:14;;;;;;;0.50;0.50;;;1.00;99.90;;;;;;5070511;28;20208;-86
2020/12/03 12:54:41;;;;;;;0.60;0.60;;;1.00;99.90;;;;;;5071592;28;20300;-86
2020/12/03 12:57:07;;;;;;;0.50;0.50;;;1.00;99.90;;;;;;5072047;28;20204;-85
2020/12/03 12:59:33;;;;;;;0.60;0.60;;;1.00;99.90;;;;;;5075831;28;20223;-85
2020/12/03 13:01:59;;;;;;;0.60;0.60;;;1.00;99.90;;;;;;5075050;28;20253;-86
2020/12/03 13:04:25;;;;;;;0.57;0.57;;;1.10;99.90;;;;;;5074603;28;20608;-86
2020/12/03 13:06:54;;;;;;;0.52;0.52;;;1.10;99.90;;;;;;5074113;28;20646;-86
2020/12/03 13:09:25;;;;;;;0.50;0.50;;;1.10;99.90;;;;;;5073945;28;20199;-86
2020/12/03 13:11:52;;;;;;;0.50;0.50;;;1.10;99.90;;;;;;5074703;28;20277;-86
2020/12/03 13:14:20;;;;;;;0.55;0.55;;;1.00;99.90;;;;;;5075073;28;20199;-86
2020/12/03 13:16:47;;;;;;;0.60;0.60;;;1.10;99.90;;;;;;5074936;28;20733;-86
2020/12/03 13:19:13;;;;;;;0.50;0.50;;;1.10;99.90;;;;;;5075160;28;20558;-86